Meadowbrook, Alabama
Current Conditions -  °F | °C
As of 5:53 PM on Wednesday 28 Jan 2015 (Local Time) from KBHM Reporting Station
Clear Clear  
Wind Chill: 49°   Ceiling: Unl
Heat Index: 49°   Visibility: 10mi
Dew Point: 28°   Wind: 0mph
Humidity: 44%   Direction: NA
Pressure: 30.25"   Gusts: NA
Location:  33.3752°N, 86.7086°W
Report Text: KBHM 282353Z 00000KT 10SM CLR 09/M02 A3025 RMK AO2 SLP246 T00941022 10144 20089 55002
Loading
Personal Weather Stations






























Interactive Weather Map New forecast layout! Learn more

10-Day Weather Forecast

Advertisements
Track Severe Weather on mobile